createdAt,value
2023-03-05T00:01:13.165Z,0.89
2023-03-05T00:02:44.909Z,0.89
2023-03-05T00:04:16.580Z,0.79
2023-03-05T00:05:48.573Z,0.67
2023-03-05T00:07:23.248Z,0.76
2023-03-05T00:08:58.439Z,0.79
2023-03-05T00:10:30.308Z,1.06
2023-03-05T00:12:02.126Z,0.97
2023-03-05T00:13:35.421Z,0.89
2023-03-05T00:15:09.258Z,1.09
2023-03-05T00:16:41.082Z,1.01
2023-03-05T00:18:13.597Z,1.00
2023-03-05T00:19:45.360Z,0.92
2023-03-05T00:21:20.850Z,0.83
2023-03-05T00:22:52.605Z,0.84
2023-03-05T00:24:25.683Z,0.98
2023-03-05T00:25:57.942Z,1.03
2023-03-05T00:27:29.580Z,0.96
2023-03-05T00:29:01.169Z,1.03
2023-03-05T00:30:33.701Z,0.76
2023-03-05T00:32:05.778Z,0.68
2023-03-05T00:33:37.522Z,0.88
2023-03-05T00:35:09.993Z,1.09
2023-03-05T00:36:41.947Z,1.16
2023-03-05T00:38:13.671Z,1.09
2023-03-05T00:39:46.748Z,0.98
2023-03-05T00:41:18.331Z,1.13
2023-03-05T00:42:50.255Z,1.12
2023-03-05T00:44:22.069Z,0.85
2023-03-05T00:45:53.809Z,0.91
2023-03-05T00:47:25.533Z,1.03
2023-03-05T00:48:57.296Z,0.89
2023-03-05T00:50:28.947Z,0.91
2023-03-05T00:52:00.741Z,1.05
2023-03-05T00:53:32.566Z,1.11
2023-03-05T00:55:06.490Z,1.11
2023-03-05T00:56:38.162Z,1.04
2023-03-05T00:58:09.777Z,1.07
2023-03-05T00:59:41.501Z,1.04
2023-03-05T01:01:13.247Z,0.97
2023-03-05T01:02:44.922Z,0.97
2023-03-05T01:04:16.589Z,0.98
2023-03-05T01:05:48.405Z,0.81
2023-03-05T01:07:20.005Z,0.98
2023-03-05T01:08:51.616Z,0.94
2023-03-05T01:10:28.100Z,1.08
2023-03-05T01:12:00.448Z,1.05
2023-03-05T01:13:32.149Z,0.81
2023-03-05T01:15:04.518Z,1.00
2023-03-05T01:16:36.272Z,1.13
2023-03-05T01:18:07.878Z,1.14
2023-03-05T01:19:39.656Z,0.87
2023-03-05T01:21:11.589Z,0.83
2023-03-05T01:22:43.258Z,0.98
2023-03-05T01:24:14.933Z,0.94
2023-03-05T01:25:55.397Z,0.94
2023-03-05T01:27:27.050Z,0.96
2023-03-05T01:28:58.671Z,0.84
2023-03-05T01:30:30.300Z,0.88
2023-03-05T01:32:02.344Z,0.99
2023-03-05T01:33:34.323Z,1.03
2023-03-05T01:35:06.828Z,1.04
2023-03-05T01:36:38.518Z,0.94
2023-03-05T01:38:10.520Z,0.96
2023-03-05T01:39:42.167Z,0.89
2023-03-05T01:41:15.668Z,1.04
2023-03-05T01:42:48.114Z,1.02
2023-03-05T01:44:23.591Z,1.11
2023-03-05T01:46:31.887Z,1.01
2023-03-05T01:48:03.945Z,1.14
2023-03-05T01:49:38.060Z,1.11
2023-03-05T01:51:09.669Z,1.12
2023-03-05T01:52:42.948Z,1.00
2023-03-05T01:54:15.443Z,0.88
2023-03-05T01:55:47.150Z,1.01
2023-03-05T01:57:21.299Z,1.10
2023-03-05T01:58:52.903Z,1.04
2023-03-05T02:00:26.545Z,1.09
2023-03-05T02:01:58.192Z,1.04
2023-03-05T02:03:29.841Z,1.12
2023-03-05T02:05:03.807Z,1.14
2023-03-05T02:06:35.491Z,1.08
2023-03-05T02:08:08.418Z,1.00
2023-03-05T02:09:40.537Z,1.08
2023-03-05T02:11:12.297Z,1.00
2023-03-05T02:12:45.347Z,0.98
2023-03-05T02:14:16.942Z,0.95
2023-03-05T02:15:49.837Z,0.94
2023-03-05T02:17:21.482Z,0.84
2023-03-05T02:18:53.202Z,0.91
2023-03-05T02:20:25.704Z,0.84
2023-03-05T02:21:58.767Z,0.90
2023-03-05T02:23:33.717Z,0.96
2023-03-05T02:25:18.616Z,1.08
2023-03-05T02:26:50.279Z,1.02
2023-03-05T02:28:24.760Z,1.04
2023-03-05T02:29:56.916Z,0.92
2023-03-05T02:31:28.545Z,1.03
2023-03-05T02:33:00.453Z,0.87
2023-03-05T02:34:32.131Z,0.77
2023-03-05T02:36:04.461Z,0.94
2023-03-05T02:37:37.666Z,0.84
2023-03-05T02:39:09.996Z,0.89
2023-03-05T02:40:41.591Z,0.83
2023-03-05T02:42:13.248Z,0.89
2023-03-05T02:43:44.858Z,0.84
2023-03-05T02:45:16.595Z,0.78
2023-03-05T02:46:48.504Z,1.01
2023-03-05T02:48:20.162Z,1.11
2023-03-05T02:49:51.797Z,1.18
2023-03-05T02:51:23.450Z,1.14
2023-03-05T02:52:56.417Z,1.10
2023-03-05T02:54:28.148Z,1.11
2023-03-05T02:56:00.286Z,1.09
2023-03-05T02:57:31.926Z,1.06
2023-03-05T02:59:03.625Z,0.93
2023-03-05T03:00:35.240Z,0.94
2023-03-05T03:02:06.848Z,0.83
2023-03-05T03:03:38.588Z,0.96
2023-03-05T03:05:10.431Z,0.93
2023-03-05T03:06:42.146Z,0.97
2023-03-05T03:08:15.865Z,0.93
2023-03-05T03:09:47.540Z,0.99
2023-03-05T03:11:19.215Z,0.96
2023-03-05T03:12:50.888Z,0.95
2023-03-05T03:14:22.527Z,0.87
2023-03-05T03:16:01.892Z,0.72
2023-03-05T03:17:34.725Z,0.69
2023-03-05T03:19:06.365Z,0.85
2023-03-05T03:20:39.135Z,0.83
2023-03-05T03:22:11.098Z,0.76
2023-03-05T03:23:44.140Z,0.87
2023-03-05T03:25:16.205Z,0.78
2023-03-05T03:26:47.874Z,0.68
2023-03-05T03:28:19.754Z,0.77
2023-03-05T03:29:51.416Z,0.94
2023-03-05T03:31:23.169Z,0.95
2023-03-05T03:32:54.950Z,0.89
2023-03-05T03:34:26.663Z,0.90
2023-03-05T03:35:58.404Z,0.93
2023-03-05T03:37:30.199Z,0.85
2023-03-05T03:39:04.288Z,0.85
2023-03-05T03:40:37.456Z,0.98
2023-03-05T03:42:09.247Z,1.07
2023-03-05T03:43:40.948Z,0.98
2023-03-05T03:45:13.364Z,0.86
2023-03-05T03:46:46.299Z,0.85
2023-03-05T03:48:18.150Z,0.97
2023-03-05T03:49:49.832Z,1.05
2023-03-05T03:51:21.407Z,0.98
2023-03-05T03:52:53.049Z,1.03
2023-03-05T03:54:26.337Z,1.05
2023-03-05T03:55:58.506Z,0.98
2023-03-05T03:57:30.336Z,0.94
2023-03-05T03:59:02.026Z,1.01
2023-03-05T04:00:33.705Z,0.89
2023-03-05T04:02:05.450Z,0.88
2023-03-05T04:03:37.109Z,0.90
2023-03-05T04:05:09.249Z,0.95
2023-03-05T04:06:40.889Z,0.91
2023-03-05T04:08:12.682Z,0.81
2023-03-05T04:09:45.699Z,0.90
2023-03-05T04:11:19.319Z,0.94
2023-03-05T04:12:51.058Z,0.84
2023-03-05T04:14:22.706Z,0.90
2023-03-05T04:15:54.382Z,0.97
2023-03-05T04:17:26.128Z,0.90
2023-03-05T04:18:57.784Z,0.98
2023-03-05T04:20:29.388Z,0.97
2023-03-05T04:22:01.301Z,0.98
2023-03-05T04:23:33.021Z,0.97
2023-03-05T04:25:08.339Z,0.82
2023-03-05T04:26:39.950Z,0.74
2023-03-05T04:28:11.600Z,0.75
2023-03-05T04:29:43.205Z,0.79
2023-03-05T04:31:15.001Z,0.84
2023-03-05T04:32:46.778Z,0.84
2023-03-05T04:34:18.391Z,0.85
2023-03-05T04:35:50.107Z,0.78
2023-03-05T04:37:21.904Z,0.70
2023-03-05T04:38:53.557Z,0.82
2023-03-05T04:40:26.659Z,0.79
2023-03-05T04:41:58.313Z,0.81
2023-03-05T04:43:29.965Z,0.88
2023-03-05T04:45:01.565Z,0.90
2023-03-05T04:46:33.237Z,0.91
2023-03-05T04:48:05.291Z,0.95
2023-03-05T04:49:36.930Z,0.81
2023-03-05T04:51:08.593Z,0.79
2023-03-05T04:52:40.703Z,0.86
2023-03-05T04:54:12.290Z,0.94
2023-03-05T04:55:45.479Z,0.77
2023-03-05T04:57:17.337Z,0.70
2023-03-05T04:58:49.036Z,0.88
2023-03-05T05:00:20.878Z,0.81
2023-03-05T05:01:52.479Z,0.80
2023-03-05T05:03:24.167Z,0.86
2023-03-05T05:04:55.825Z,0.83
2023-03-05T05:06:27.464Z,0.78
2023-03-05T05:07:59.170Z,0.76
2023-03-05T05:09:30.805Z,0.76
2023-03-05T05:11:04.912Z,0.75
2023-03-05T05:12:36.645Z,0.72
2023-03-05T05:14:08.284Z,0.74
2023-03-05T05:15:40.453Z,0.74
2023-03-05T05:17:12.151Z,0.82
2023-03-05T05:18:43.786Z,0.89
2023-03-05T05:20:15.952Z,0.87
2023-03-05T05:21:47.660Z,0.50
2023-03-05T05:23:19.262Z,0.71
2023-03-05T05:24:50.871Z,0.68
2023-03-05T05:26:23.886Z,0.44
2023-03-05T05:27:55.632Z,0.56
2023-03-05T05:29:27.363Z,0.55
2023-03-05T05:30:58.982Z,0.46
2023-03-05T05:32:30.791Z,0.59
2023-03-05T05:34:02.720Z,0.64
2023-03-05T05:35:34.414Z,0.50
2023-03-05T05:37:06.101Z,0.47
2023-03-05T05:38:37.738Z,0.35
2023-03-05T05:40:10.675Z,0.36
2023-03-05T05:41:43.676Z,0.47
2023-03-05T05:43:15.476Z,0.36
2023-03-05T05:44:47.649Z,0.16
2023-03-05T05:46:19.943Z,0.30
2023-03-05T05:47:51.693Z,0.34
2023-03-05T05:49:23.304Z,0.28
2023-03-05T05:50:55.101Z,0.30
2023-03-05T05:52:26.828Z,0.53
2023-03-05T05:53:58.472Z,0.58
2023-03-05T05:55:30.666Z,0.53
2023-03-05T05:57:19.184Z,0.37
2023-03-05T05:58:53.522Z,0.19
2023-03-05T06:00:25.912Z,0.01
2023-03-05T06:01:57.636Z,0.16
2023-03-05T06:03:29.376Z,0.39
2023-03-05T06:05:01.108Z,0.50
2023-03-05T06:06:36.893Z,0.45
2023-03-05T06:08:08.709Z,0.41
2023-03-05T06:09:40.880Z,0.50
2023-03-05T06:11:12.721Z,0.26
2023-03-05T06:12:45.807Z,0.32
2023-03-05T06:14:19.538Z,0.47
2023-03-05T06:15:57.967Z,0.33
2023-03-05T06:17:32.332Z,0.37
2023-03-05T06:19:04.617Z,0.49
2023-03-05T06:20:36.918Z,0.52
2023-03-05T06:22:08.983Z,0.50
2023-03-05T06:23:40.946Z,0.46
2023-03-05T06:25:15.464Z,0.41
2023-03-05T06:26:48.580Z,0.38
2023-03-05T06:28:24.376Z,-0.13
2023-03-05T06:29:56.728Z,-0.18
2023-03-05T06:31:29.378Z,-0.06
2023-03-05T06:33:01.092Z,0.06
2023-03-05T06:34:33.166Z,0.34
2023-03-05T06:36:07.654Z,-0.02
2023-03-05T06:37:39.329Z,-0.01
2023-03-05T06:39:11.126Z,0.31
2023-03-05T06:40:42.887Z,0.45
2023-03-05T06:42:14.618Z,0.48
2023-03-05T06:43:48.071Z,0.56
2023-03-05T06:45:19.880Z,0.51
2023-03-05T06:46:51.627Z,0.18
2023-03-05T06:48:23.398Z,0.10
2023-03-05T06:49:55.043Z,0.08
2023-03-05T06:51:27.714Z,0.33
2023-03-05T06:53:03.067Z,0.46
2023-03-05T06:54:34.998Z,0.46
2023-03-05T06:56:07.248Z,0.45
2023-03-05T06:57:39.216Z,0.26
2023-03-05T06:59:13.834Z,0.33
2023-03-05T07:00:45.917Z,0.43
2023-03-05T07:02:20.564Z,0.47
2023-03-05T07:03:53.742Z,0.43
2023-03-05T07:05:25.771Z,0.46
2023-03-05T07:06:59.300Z,0.59
2023-03-05T07:08:31.220Z,0.67
2023-03-05T07:10:03.552Z,0.66
2023-03-05T07:11:35.257Z,0.60
2023-03-05T07:13:07.003Z,0.65
2023-03-05T07:14:40.142Z,0.72
2023-03-05T07:16:14.380Z,0.80
2023-03-05T07:17:46.064Z,0.72
2023-03-05T07:19:18.188Z,0.73
2023-03-05T07:20:50.049Z,0.79
2023-03-05T07:22:21.752Z,0.78
2023-03-05T07:23:53.630Z,0.89
2023-03-05T07:25:25.256Z,0.91
2023-03-05T07:27:00.022Z,0.90
2023-03-05T07:28:32.118Z,0.88
2023-03-05T07:30:06.700Z,0.86
2023-03-05T07:31:38.454Z,0.91
2023-03-05T07:33:10.215Z,0.97
2023-03-05T07:34:44.956Z,1.05
2023-03-05T07:36:17.277Z,1.03
2023-03-05T07:37:49.042Z,0.94
2023-03-05T07:39:21.440Z,0.99
2023-03-05T07:40:53.732Z,0.97
2023-03-05T07:42:25.896Z,0.95
2023-03-05T07:44:00.516Z,1.01
2023-03-05T07:45:33.976Z,1.04
2023-03-05T07:47:06.151Z,0.99
2023-03-05T07:48:37.872Z,0.97
2023-03-05T07:50:10.581Z,1.09
2023-03-05T07:51:42.393Z,1.06
2023-03-05T07:53:14.200Z,1.20
2023-03-05T07:54:45.978Z,1.20
2023-03-05T07:56:21.623Z,1.22
2023-03-05T07:57:53.747Z,1.19
2023-03-05T07:59:28.272Z,1.24
2023-03-05T08:01:04.008Z,1.33
2023-03-05T08:02:36.574Z,1.30
2023-03-05T08:04:11.172Z,1.34
2023-03-05T08:05:43.254Z,1.37
2023-03-05T08:07:21.332Z,1.38
2023-03-05T08:08:55.854Z,1.33
2023-03-05T08:10:27.742Z,1.29
2023-03-05T08:11:59.767Z,1.41
2023-03-05T08:13:31.548Z,1.46
2023-03-05T08:15:03.708Z,1.56
2023-03-05T08:16:36.741Z,1.61
2023-03-05T08:18:08.954Z,1.66
2023-03-05T08:19:43.493Z,1.68
2023-03-05T08:21:16.435Z,1.68
2023-03-05T08:22:48.137Z,1.51
2023-03-05T08:24:19.929Z,1.62
2023-03-05T08:25:51.566Z,1.72
2023-03-05T08:27:23.177Z,1.76
2023-03-05T08:28:55.125Z,1.60
2023-03-05T08:30:27.568Z,1.57
2023-03-05T08:32:00.734Z,1.59
2023-03-05T08:33:33.859Z,1.84
2023-03-05T08:35:07.573Z,1.97
2023-03-05T08:36:39.310Z,1.88
2023-03-05T08:38:11.104Z,1.62
2023-03-05T08:39:43.015Z,1.63
2023-03-05T08:41:15.041Z,1.50
2023-03-05T08:42:46.705Z,1.69
2023-03-05T08:44:18.390Z,1.93
2023-03-05T08:45:51.629Z,1.85
2023-03-05T08:47:26.680Z,1.95
2023-03-05T08:49:00.210Z,2.10
2023-03-05T08:50:32.757Z,2.10
2023-03-05T08:52:14.710Z,2.16
2023-03-05T08:53:49.539Z,1.96
2023-03-05T08:55:21.873Z,1.94
2023-03-05T08:56:56.489Z,2.06
2023-03-05T08:58:28.448Z,2.09
2023-03-05T09:00:00.447Z,2.25
2023-03-05T09:01:38.795Z,2.15
2023-03-05T09:03:22.264Z,1.95
2023-03-05T09:05:22.365Z,2.03
2023-03-05T09:07:24.741Z,1.94
2023-03-05T09:09:02.617Z,2.28
2023-03-05T09:10:46.461Z,2.31
2023-03-05T09:12:18.403Z,2.47
2023-03-05T09:14:09.355Z,2.13
2023-03-05T09:16:17.656Z,2.18
2023-03-05T09:17:54.176Z,2.12
2023-03-05T09:19:27.604Z,2.24
2023-03-05T09:21:08.478Z,2.31
2023-03-05T09:22:51.112Z,2.37
2023-03-05T09:24:23.836Z,2.47
2023-03-05T09:26:12.218Z,2.21
2023-03-05T09:27:46.304Z,2.49
2023-03-05T09:29:18.336Z,2.53
2023-03-05T09:30:50.304Z,2.47
2023-03-05T09:32:23.060Z,2.18
2023-03-05T09:33:58.204Z,2.00
2023-03-05T09:35:38.191Z,2.37
2023-03-05T09:37:10.657Z,2.37
2023-03-05T09:38:45.480Z,2.60
2023-03-05T09:40:20.341Z,2.48
2023-03-05T09:42:25.766Z,2.36
2023-03-05T09:44:03.011Z,2.66
2023-03-05T09:45:38.935Z,2.66
2023-03-05T09:47:20.717Z,2.44
2023-03-05T09:48:56.394Z,2.41
2023-03-05T09:50:37.659Z,2.62
2023-03-05T09:52:18.627Z,2.75
2023-03-05T09:53:56.404Z,2.67
2023-03-05T09:55:46.165Z,2.95
2023-03-05T09:57:26.208Z,3.26
2023-03-05T09:59:13.054Z,3.16
2023-03-05T10:00:49.676Z,3.24
2023-03-05T10:02:39.586Z,3.35
2023-03-05T10:04:18.845Z,3.22
2023-03-05T10:06:11.031Z,2.96
2023-03-05T10:09:47.304Z,3.02
2023-03-05T10:11:48.732Z,3.05
2023-03-05T10:13:46.563Z,3.12
2023-03-05T10:15:32.150Z,3.23
2023-03-05T10:17:32.823Z,3.17
2023-03-05T10:19:31.625Z,3.63
2023-03-05T10:21:21.301Z,2.98
2023-03-05T10:23:21.328Z,3.32
2023-03-05T10:25:31.651Z,3.12
2023-03-05T10:27:22.692Z,3.27
2023-03-05T10:29:16.580Z,3.79
2023-03-05T10:31:31.967Z,3.19
2023-03-05T10:33:54.610Z,3.32
2023-03-05T10:40:25.440Z,3.43
2023-03-05T10:42:04.308Z,3.19
2023-03-05T10:43:43.164Z,3.34
2023-03-05T10:45:18.659Z,3.60
2023-03-05T10:46:50.514Z,3.41
2023-03-05T10:48:29.025Z,3.58
2023-03-05T10:50:05.819Z,3.64
2023-03-05T10:51:38.661Z,3.81
2023-03-05T10:53:17.399Z,3.85
2023-03-05T10:54:49.529Z,3.64
2023-03-05T10:56:22.440Z,3.79
2023-03-05T10:57:55.034Z,3.88
2023-03-05T10:59:29.419Z,4.07
2023-03-05T11:01:07.305Z,3.95
2023-03-05T11:02:53.333Z,3.88
2023-03-05T11:04:29.197Z,3.81
2023-03-05T11:06:01.732Z,3.88
2023-03-05T11:07:37.370Z,4.10
2023-03-05T11:09:27.032Z,3.93
2023-03-05T11:11:18.776Z,3.96
2023-03-05T11:12:50.673Z,3.72
2023-03-05T11:14:25.250Z,4.12
2023-03-05T11:16:02.185Z,4.47
2023-03-05T11:17:34.909Z,4.46
2023-03-05T11:19:22.447Z,3.82
2023-03-05T11:20:55.234Z,4.18
2023-03-05T11:22:27.273Z,4.52
2023-03-05T11:24:06.679Z,4.56
2023-03-05T11:25:55.216Z,4.19
2023-03-05T11:27:32.365Z,4.35
2023-03-05T11:29:05.007Z,4.37
2023-03-05T11:30:36.861Z,4.43
2023-03-05T11:32:19.288Z,4.65
2023-03-05T11:33:55.920Z,4.23
2023-03-05T11:35:31.658Z,4.24
2023-03-05T11:37:04.859Z,4.05
2023-03-05T11:38:44.742Z,4.98
2023-03-05T11:40:21.380Z,5.13
2023-03-05T11:41:56.496Z,5.46
2023-03-05T11:43:38.727Z,5.06
2023-03-05T11:45:15.121Z,5.32
2023-03-05T11:46:48.012Z,5.49
2023-03-05T11:48:25.324Z,5.50
2023-03-05T11:50:04.951Z,5.76
2023-03-05T11:51:40.547Z,6.08
2023-03-05T11:53:13.393Z,5.93
2023-03-05T11:54:51.433Z,5.27
2023-03-05T11:56:25.932Z,5.40
2023-03-05T11:58:08.213Z,5.66
2023-03-05T11:59:40.462Z,5.21
2023-03-05T12:01:14.440Z,5.02
2023-03-05T12:02:49.891Z,5.80
2023-03-05T12:04:21.742Z,5.98
2023-03-05T12:05:54.721Z,6.21
2023-03-05T12:07:31.024Z,6.44
2023-03-05T12:09:06.660Z,6.11
2023-03-05T12:10:38.685Z,5.75
2023-03-05T12:12:17.544Z,6.41
2023-03-05T12:13:52.016Z,5.77
2023-03-05T12:15:35.233Z,6.00
2023-03-05T12:17:11.176Z,6.47
2023-03-05T12:18:50.881Z,5.45
2023-03-05T12:20:25.531Z,6.11
2023-03-05T12:21:57.405Z,6.17
2023-03-05T12:23:29.381Z,5.79
2023-03-05T12:25:27.533Z,5.81
2023-03-05T12:27:14.851Z,6.52
2023-03-05T12:28:55.962Z,6.31
2023-03-05T12:30:55.138Z,5.73
2023-03-05T12:32:59.896Z,5.92
2023-03-05T12:34:36.847Z,6.24
2023-03-05T12:36:34.016Z,6.04
2023-03-05T12:38:30.282Z,6.51
2023-03-05T12:40:04.882Z,6.46
2023-03-05T12:41:44.449Z,7.53
2023-03-05T12:43:30.445Z,7.41
2023-03-05T12:45:30.587Z,6.29
2023-03-05T12:47:23.518Z,7.65
2023-03-05T12:48:55.412Z,6.63
2023-03-05T12:50:49.298Z,7.15
2023-03-05T12:52:28.747Z,6.91
2023-03-05T12:54:22.770Z,7.10
2023-03-05T12:56:00.335Z,7.95
2023-03-05T12:57:31.997Z,6.76
2023-03-05T12:59:04.292Z,7.90
2023-03-05T13:00:39.642Z,8.31
2023-03-05T13:02:27.189Z,7.00
2023-03-05T13:04:00.536Z,7.99
2023-03-05T13:05:33.780Z,7.99
2023-03-05T13:07:15.379Z,8.81
2023-03-05T13:09:00.071Z,8.15
2023-03-05T13:10:38.329Z,8.27
2023-03-05T13:12:15.292Z,8.04
2023-03-05T13:13:59.023Z,8.98
2023-03-05T13:15:43.295Z,8.97
2023-03-05T13:17:38.396Z,7.97
2023-03-05T13:19:22.729Z,8.56
2023-03-05T13:21:04.014Z,7.17
2023-03-05T13:22:42.473Z,7.98
2023-03-05T13:24:23.183Z,8.87
2023-03-05T13:26:00.213Z,8.65
2023-03-05T13:27:38.139Z,9.41
2023-03-05T13:29:14.080Z,9.65
2023-03-05T13:30:51.227Z,9.64
2023-03-05T13:32:30.701Z,9.65
2023-03-05T13:34:29.834Z,9.56
2023-03-05T13:36:17.205Z,8.53
2023-03-05T13:37:53.103Z,8.45
2023-03-05T13:39:34.239Z,8.08
2023-03-05T13:41:27.293Z,9.07
2023-03-05T13:43:17.964Z,10.18
2023-03-05T13:45:04.485Z,9.39
2023-03-05T13:46:42.280Z,9.30
2023-03-05T13:48:37.005Z,9.97
2023-03-05T13:50:28.906Z,8.65
2023-03-05T13:52:08.212Z,8.25
2023-03-05T13:53:53.515Z,8.96
2023-03-05T13:57:40.002Z,9.22
2023-03-05T13:59:25.910Z,9.40
2023-03-05T14:01:04.938Z,9.75
2023-03-05T14:02:42.424Z,9.73
2023-03-05T14:04:25.187Z,9.01
2023-03-05T14:06:13.455Z,9.64
2023-03-05T14:08:00.447Z,10.31
2023-03-05T14:09:49.144Z,8.35
2023-03-05T14:11:29.221Z,9.45
2023-03-05T14:13:02.795Z,8.69
2023-03-05T14:14:50.371Z,9.24
2023-03-05T14:16:38.200Z,8.63
2023-03-05T14:18:24.101Z,8.36
2023-03-05T14:20:07.368Z,10.04
2023-03-05T14:21:57.366Z,10.13
2023-03-05T14:23:35.996Z,9.40
2023-03-05T14:25:34.319Z,8.63
2023-03-05T14:27:18.775Z,9.92
2023-03-05T14:28:51.995Z,9.12
2023-03-05T14:30:24.247Z,8.79
2023-03-05T14:31:57.348Z,10.31
2023-03-05T14:33:50.152Z,10.28
2023-03-05T14:37:18.662Z,8.50
2023-03-05T14:38:57.601Z,9.27
2023-03-05T14:40:51.622Z,9.28
2023-03-05T14:42:29.552Z,9.74
2023-03-05T14:44:10.529Z,9.02
2023-03-05T14:45:49.092Z,8.69
2023-03-05T14:47:22.500Z,8.85
2023-03-05T14:49:10.797Z,9.46
2023-03-05T14:50:46.772Z,9.46
2023-03-05T14:52:19.470Z,9.05
2023-03-05T14:54:09.538Z,9.47
2023-03-05T14:55:47.049Z,9.49
2023-03-05T14:57:22.382Z,8.48
2023-03-05T15:00:46.028Z,8.11
2023-03-05T15:02:21.892Z,7.95
2023-03-05T15:03:57.834Z,8.08
2023-03-05T15:05:59.229Z,8.18
2023-03-05T15:07:42.004Z,8.63
2023-03-05T15:09:38.364Z,8.65
2023-03-05T15:11:33.407Z,8.15
2023-03-05T15:13:12.739Z,7.96
2023-03-05T15:15:52.455Z,7.86
2023-03-05T15:17:36.314Z,7.24
2023-03-05T15:19:12.499Z,7.24
2023-03-05T15:21:07.413Z,7.69
2023-03-05T15:22:52.657Z,7.41
2023-03-05T15:24:32.018Z,7.31
2023-03-05T15:26:14.666Z,7.29
2023-03-05T15:27:53.840Z,6.93
2023-03-05T15:29:42.760Z,7.19
2023-03-05T15:31:16.381Z,7.56
2023-03-05T15:32:51.372Z,7.47
2023-03-05T15:34:23.374Z,6.64
2023-03-05T15:36:03.337Z,6.50
2023-03-05T15:37:40.968Z,6.47
2023-03-05T15:39:13.179Z,6.60
2023-03-05T15:40:46.100Z,6.77
2023-03-05T15:42:20.764Z,7.04
2023-03-05T15:43:59.806Z,7.12
2023-03-05T15:45:36.298Z,6.70
2023-03-05T15:47:13.980Z,6.58
2023-03-05T15:48:50.330Z,6.73
2023-03-05T15:50:23.157Z,6.74
2023-03-05T15:51:55.605Z,6.69
2023-03-05T15:53:35.443Z,6.53
2023-03-05T15:55:18.882Z,6.37
2023-03-05T15:57:10.181Z,6.40
2023-03-05T15:58:46.460Z,6.27
2023-03-05T16:00:24.861Z,6.64
2023-03-05T16:01:57.910Z,6.19
2023-03-05T16:03:31.792Z,6.40
2023-03-05T16:05:04.281Z,6.10
2023-03-05T16:06:36.432Z,6.07
2023-03-05T16:08:12.967Z,6.23
2023-03-05T16:09:53.724Z,6.07
2023-03-05T16:11:31.039Z,6.09
2023-03-05T16:13:08.136Z,6.41
2023-03-05T16:14:40.252Z,6.23
2023-03-05T16:16:12.600Z,6.30
2023-03-05T16:17:52.333Z,6.37
2023-03-05T16:19:32.047Z,6.19
2023-03-05T16:21:04.095Z,6.34
2023-03-05T16:22:36.009Z,6.37
2023-03-05T16:24:07.930Z,6.06
2023-03-05T16:25:41.102Z,6.14
2023-03-05T16:27:12.863Z,6.02
2023-03-05T16:28:55.047Z,6.21
2023-03-05T16:30:30.701Z,6.03
2023-03-05T16:32:03.019Z,6.10
2023-03-05T16:33:40.888Z,6.12
2023-03-05T16:35:13.220Z,6.09
2023-03-05T16:36:47.027Z,5.63
2023-03-05T16:38:19.328Z,5.27
2023-03-05T16:39:53.838Z,5.56
2023-03-05T16:41:27.265Z,5.78
2023-03-05T16:42:59.231Z,5.79
2023-03-05T16:44:33.775Z,5.49
2023-03-05T16:46:05.678Z,5.64
2023-03-05T16:47:37.502Z,5.89
2023-03-05T16:49:14.118Z,5.95
2023-03-05T16:50:45.871Z,5.62
2023-03-05T16:52:19.824Z,5.19
2023-03-05T16:53:53.563Z,5.14
2023-03-05T16:55:26.245Z,4.98
2023-03-05T16:57:10.203Z,5.24
2023-03-05T16:58:44.098Z,5.48
2023-03-05T17:00:20.423Z,5.38
2023-03-05T17:01:52.274Z,5.22
2023-03-05T17:03:26.168Z,5.07
2023-03-05T17:04:57.887Z,5.42
2023-03-05T17:06:30.674Z,5.44
2023-03-05T17:08:05.338Z,5.23
2023-03-05T17:09:39.148Z,5.39
2023-03-05T17:11:12.347Z,5.38
2023-03-05T17:12:47.472Z,5.18
2023-03-05T17:14:19.312Z,4.99
2023-03-05T17:15:56.212Z,5.18
2023-03-05T17:17:34.984Z,5.22
2023-03-05T17:19:06.756Z,4.95
2023-03-05T17:20:46.976Z,5.08
2023-03-05T17:22:21.720Z,5.19
2023-03-05T17:24:02.107Z,5.13
2023-03-05T17:25:36.017Z,5.18
2023-03-05T17:27:13.127Z,5.04
2023-03-05T17:28:46.692Z,4.95
2023-03-05T17:30:22.114Z,4.93
2023-03-05T17:31:53.868Z,4.98
2023-03-05T17:33:26.944Z,5.13
2023-03-05T17:35:03.171Z,5.10
2023-03-05T17:36:38.397Z,5.07
2023-03-05T17:38:10.914Z,4.95
2023-03-05T17:39:48.739Z,4.82
2023-03-05T17:41:20.712Z,4.69
2023-03-05T17:42:52.445Z,4.82
2023-03-05T17:44:28.420Z,4.72
2023-03-05T17:46:01.341Z,4.76
2023-03-05T17:47:33.158Z,4.69
2023-03-05T17:49:06.830Z,4.76
2023-03-05T17:50:38.589Z,4.80
2023-03-05T17:52:40.501Z,4.87
2023-03-05T17:54:44.044Z,4.75
2023-03-05T17:56:20.435Z,4.45
2023-03-05T17:57:56.306Z,4.50
2023-03-05T17:59:29.316Z,4.60
2023-03-05T18:01:00.984Z,4.50
2023-03-05T18:02:35.499Z,4.36
2023-03-05T18:04:07.347Z,4.65
2023-03-05T18:05:39.232Z,4.66
2023-03-05T18:07:11.641Z,4.56
2023-03-05T18:08:49.158Z,4.67
2023-03-05T18:10:22.763Z,4.65
2023-03-05T18:11:54.516Z,4.68
2023-03-05T18:13:26.138Z,4.31
2023-03-05T18:14:59.347Z,4.34
2023-03-05T18:16:31.212Z,4.42
2023-03-05T18:18:03.553Z,4.55
2023-03-05T18:19:35.393Z,4.58
2023-03-05T18:21:07.870Z,4.49
2023-03-05T18:22:39.847Z,4.38
2023-03-05T18:24:13.827Z,4.28
2023-03-05T18:25:45.617Z,4.37
2023-03-05T18:27:17.769Z,4.28
2023-03-05T18:28:56.982Z,4.27
2023-03-05T18:30:31.637Z,4.03
2023-03-05T18:32:07.211Z,4.17
2023-03-05T18:33:41.865Z,4.28
2023-03-05T18:35:14.516Z,4.25
2023-03-05T18:36:46.900Z,4.15
2023-03-05T18:38:24.384Z,4.14
2023-03-05T18:39:58.135Z,4.06
2023-03-05T18:41:31.568Z,4.29
2023-03-05T18:43:13.436Z,4.18
2023-03-05T18:44:49.747Z,4.10
2023-03-05T18:46:23.253Z,3.86
2023-03-05T18:47:56.757Z,3.73
2023-03-05T18:49:29.688Z,3.47
2023-03-05T18:51:02.219Z,3.72
2023-03-05T18:52:35.729Z,3.67
2023-03-05T18:54:07.678Z,3.79
2023-03-05T18:55:42.859Z,3.68
2023-03-05T18:57:15.036Z,3.80
2023-03-05T18:58:47.821Z,3.72
2023-03-05T19:00:20.800Z,3.67
2023-03-05T19:01:54.399Z,3.86
2023-03-05T19:03:31.226Z,3.87
2023-03-05T19:05:08.528Z,3.77
2023-03-05T19:06:48.842Z,3.60
2023-03-05T19:08:21.112Z,3.74
2023-03-05T19:09:59.658Z,3.72
2023-03-05T19:11:31.666Z,3.42
2023-03-05T19:13:23.096Z,3.44
2023-03-05T19:14:55.196Z,3.57
2023-03-05T19:16:29.791Z,3.18
2023-03-05T19:18:03.300Z,3.26
2023-03-05T19:19:43.191Z,3.21
2023-03-05T19:21:14.945Z,3.60
2023-03-05T19:22:47.057Z,3.72
2023-03-05T19:24:19.059Z,3.71
2023-03-05T19:25:50.748Z,3.63
2023-03-05T19:27:25.450Z,3.74
2023-03-05T19:28:57.410Z,3.79
2023-03-05T19:30:44.279Z,3.22
2023-03-05T19:32:19.208Z,3.20
2023-03-05T19:34:01.433Z,3.16
2023-03-05T19:35:40.669Z,3.38
2023-03-05T19:37:14.989Z,3.46
2023-03-05T19:38:49.652Z,3.39
2023-03-05T19:40:22.003Z,3.51
2023-03-05T19:41:54.773Z,2.95
2023-03-05T19:43:27.513Z,3.15
2023-03-05T19:45:04.522Z,3.22
2023-03-05T19:46:42.104Z,3.37
2023-03-05T19:48:13.821Z,3.40
2023-03-05T19:49:47.536Z,3.38
2023-03-05T19:51:20.443Z,3.38
2023-03-05T19:52:51.987Z,3.44
2023-03-05T19:54:23.774Z,3.43
2023-03-05T19:55:55.605Z,3.23
2023-03-05T19:57:27.412Z,3.04
2023-03-05T19:58:59.298Z,3.21
2023-03-05T20:00:31.244Z,3.30
2023-03-05T20:02:03.308Z,3.32
2023-03-05T20:03:39.262Z,3.30
2023-03-05T20:05:12.652Z,3.33
2023-03-05T20:06:47.469Z,3.33
2023-03-05T20:08:25.292Z,3.29
2023-03-05T20:09:57.211Z,3.15
2023-03-05T20:11:29.069Z,3.18
2023-03-05T20:13:10.144Z,3.14
2023-03-05T20:16:49.733Z,3.33
2023-03-05T20:18:32.873Z,3.13
2023-03-05T20:20:25.405Z,3.15
2023-03-05T20:22:30.759Z,3.18
2023-03-05T20:24:33.672Z,3.12
2023-03-05T20:33:59.700Z,3.18
2023-03-05T20:36:22.456Z,3.27
2023-03-05T20:38:34.122Z,3.33
2023-03-05T20:40:13.405Z,3.39
2023-03-05T20:42:13.129Z,3.27
2023-03-05T20:43:58.509Z,3.19
2023-03-05T20:45:55.460Z,3.33
2023-03-05T20:48:02.470Z,3.27
2023-03-05T20:50:41.433Z,3.33
2023-03-05T20:57:23.756Z,3.25
2023-03-05T21:03:34.234Z,3.15
2023-03-05T21:04:32.897Z,3.24
2023-03-05T21:10:51.074Z,2.86
2023-03-05T21:17:48.959Z,3.24
2023-03-05T21:20:01.622Z,2.87
2023-03-05T21:22:35.691Z,2.87
2023-03-05T21:31:49.189Z,2.56
2023-03-05T21:39:51.563Z,2.77
2023-03-05T21:52:45.160Z,2.84
2023-03-05T22:03:16.744Z,2.68
2023-03-05T22:04:48.593Z,2.75
2023-03-05T22:07:09.883Z,2.84
2023-03-05T22:18:08.010Z,2.99
2023-03-05T22:32:49.041Z,2.71
2023-03-05T22:35:25.639Z,2.83
2023-03-05T22:58:43.114Z,2.74
2023-03-05T23:44:18.492Z,2.34
